Time;durP1;ratioP1;P1;durP2;ratioP2;P2;SDS_P1;SDS_P2;PMS_P1;PMS_P2;Temp;Humidity;BMP_temperature;BMP_pressure;BME280_temperature;BME280_humidity;BME280_pressure;Samples;Min_cycle;Max_cycle;Signal;HPM_P1;HPM_P2
2023/08/09 00:02:20;;;;;;;0.10;0.10;;;;;;;9.52;100.00;98919.60;110471;1270;22390;-56
2023/08/09 00:04:55;;;;;;;0.50;0.20;;;;;;;9.51;100.00;98917.40;110528;1270;99564;-56
2023/08/09 00:07:24;;;;;;;0.50;0.30;;;;;;;9.50;100.00;98916.08;109030;1269;26547;-57
2023/08/09 00:10:04;;;;;;;1.00;0.20;;;;;;;9.48;100.00;98924.49;107381;1270;23308;-55
2023/08/09 00:12:33;;;;;;;0.40;0.30;;;;;;;9.48;100.00;98926.45;107036;1267;99518;-56
2023/08/09 00:15:03;;;;;;;2.00;0.30;;;;;;;9.48;100.00;98929.06;107108;1267;23291;-58
2023/08/09 00:17:36;;;;;;;0.70;0.20;;;;;;;9.46;100.00;98930.20;107259;1273;99584;-56
2023/08/09 00:20:14;;;;;;;0.20;0.10;;;;;;;9.46;100.00;98935.23;107089;1271;24205;-57
2023/08/09 00:22:58;;;;;;;0.40;0.30;;;;;;;9.45;100.00;98939.77;107207;1268;99274;-55
2023/08/09 00:26:17;;;;;;;0.30;0.20;;;;;;;9.46;100.00;98943.95;107099;1274;22520;-56
2023/08/09 00:28:47;;;;;;;1.30;0.30;;;;;;;9.45;100.00;98943.64;106352;1276;99451;-56
2023/08/09 00:34:12;;;;;;;0.20;0.20;;;;;;;9.49;100.00;98944.28;107184;1260;24457;-56
2023/08/09 00:36:40;;;;;;;0.90;0.20;;;;;;;9.51;100.00;98943.66;106748;1275;99306;-56
2023/08/09 00:39:08;;;;;;;0.30;0.20;;;;;;;9.52;100.00;98944.48;107012;1273;22534;-56
2023/08/09 00:41:37;;;;;;;0.70;0.30;;;;;;;9.52;100.00;98942.01;106932;1273;99822;-56
2023/08/09 00:44:05;;;;;;;0.30;0.30;;;;;;;9.56;100.00;98940.06;107070;1273;23343;-56
2023/08/09 00:46:35;;;;;;;0.40;0.20;;;;;;;9.63;100.00;98940.20;107026;1274;99404;-55
2023/08/09 00:49:14;;;;;;;0.90;0.30;;;;;;;9.71;100.00;98936.09;108246;1273;22540;-55
2023/08/09 00:51:51;;;;;;;1.20;0.50;;;;;;;9.79;100.00;98939.66;106718;1272;22553;-56
2023/08/09 00:54:20;;;;;;;0.40;0.30;;;;;;;9.85;100.00;98937.39;106637;1273;99216;-58
2023/08/09 00:56:51;;;;;;;0.70;0.30;;;;;;;9.89;100.00;98937.67;107128;1272;22795;-55
2023/08/09 00:59:29;;;;;;;1.50;0.40;;;;;;;9.90;100.00;98929.29;106585;1277;99671;-56
2023/08/09 01:02:02;;;;;;;0.30;0.20;;;;;;;9.86;100.00;98930.55;106735;1273;22548;-60
2023/08/09 01:04:36;;;;;;;0.50;0.30;;;;;;;9.81;100.00;98930.68;106582;1272;99351;-56
2023/08/09 01:07:16;;;;;;;;;;;;;;;9.75;100.00;98931.91;106858;1272;23797;-56
2023/08/09 01:10:11;;;;;;;2.60;0.50;;;;;;;9.71;100.00;98931.59;106770;1272;24237;-56
2023/08/09 01:12:45;;;;;;;0.70;0.50;;;;;;;9.68;100.00;98931.27;106519;1273;98941;-55
2023/08/09 01:15:24;;;;;;;0.40;0.40;;;;;;;9.66;100.00;98931.86;106798;1273;22609;-55
2023/08/09 01:18:01;;;;;;;0.80;0.50;;;;;;;9.65;100.00;98931.56;106989;1272;99093;-56
2023/08/09 01:20:37;;;;;;;1.70;0.50;;;;;;;9.63;100.00;98926.11;106708;1273;22576;-56
2023/08/09 01:23:21;;;;;;;1.70;0.60;;;;;;;9.62;100.00;98931.38;106576;1272;99664;-56
2023/08/09 01:25:55;;;;;;;0.70;0.40;;;;;;;9.60;100.00;98929.91;106636;1275;24414;-56
2023/08/09 01:28:38;;;;;;;0.90;0.50;;;;;;;9.57;100.00;98926.79;106685;1262;99396;-56
2023/08/09 01:31:12;;;;;;;0.60;0.60;;;;;;;9.54;100.00;98931.98;106875;1262;24215;-57
2023/08/09 01:33:42;;;;;;;1.20;0.50;;;;;;;9.50;100.00;98926.85;106716;1276;25453;-55
2023/08/09 01:36:33;;;;;;;0.70;0.30;;;;;;;9.46;100.00;98926.23;106716;1273;99476;-56
2023/08/09 01:39:21;;;;;;;1.00;0.90;;;;;;;9.42;100.00;98926.60;106944;1273;22525;-56
2023/08/09 01:41:54;;;;;;;1.40;0.40;;;;;;;9.36;100.00;98930.58;106445;1272;99103;-57
2023/08/09 01:44:28;;;;;;;0.90;0.50;;;;;;;9.30;100.00;98931.96;106817;1271;22526;-56
2023/08/09 01:47:13;;;;;;;0.70;0.70;;;;;;;9.27;100.00;98930.54;106739;1273;99283;-55
2023/08/09 01:49:47;;;;;;;0.80;0.20;;;;;;;9.26;100.00;98928.04;106701;1273;22549;-56
2023/08/09 01:52:23;;;;;;;0.50;0.50;;;;;;;9.26;100.00;98923.99;106548;1277;24238;-56
2023/08/09 01:54:56;;;;;;;0.60;0.50;;;;;;;9.26;100.00;98920.75;106640;1272;25051;-56
2023/08/09 01:57:25;;;;;;;0.60;0.20;;;;;;;9.24;100.00;98915.23;106896;1273;22534;-56
2023/08/09 01:59:54;;;;;;;0.70;0.50;;;;;;;9.22;100.00;98918.30;106569;1257;99632;-56
2023/08/09 02:02:27;;;;;;;0.90;0.40;;;;;;;9.22;100.00;98925.47;106755;1273;23631;-55
2023/08/09 02:05:11;;;;;;;1.10;0.30;;;;;;;9.22;100.00;98927.37;107217;1272;98363;-56
2023/08/09 02:08:06;;;;;;;1.60;0.70;;;;;;;9.22;100.00;98925.99;106945;1273;22639;-55
2023/08/09 02:11:06;;;;;;;1.40;0.60;;;;;;;9.23;100.00;98924.89;106472;1273;99395;-57
2023/08/09 02:13:46;;;;;;;1.00;0.50;;;;;;;9.20;100.00;98932.64;106693;1273;22572;-57
2023/08/09 02:16:18;;;;;;;0.90;0.60;;;;;;;9.17;100.00;98933.14;106615;1273;24207;-57
2023/08/09 02:19:17;;;;;;;0.80;0.60;;;;;;;9.17;100.00;98933.30;106568;1272;99111;-56
2023/08/09 02:22:01;;;;;;;1.30;0.50;;;;;;;9.18;100.00;98935.53;106606;1273;22784;-56
2023/08/09 02:24:51;;;;;;;0.60;0.50;;;;;;;9.18;100.00;98938.65;106628;1273;99458;-57
2023/08/09 02:27:24;;;;;;;0.80;0.50;;;;;;;9.17;100.00;98940.24;106713;1276;22521;-56
2023/08/09 02:30:03;;;;;;;0.70;0.50;;;;;;;9.17;100.00;98948.61;106640;1273;101075;-57
2023/08/09 02:32:38;;;;;;;1.20;0.40;;;;;;;9.17;100.00;98952.45;106640;1272;22980;-56
2023/08/09 02:35:13;;;;;;;1.80;0.70;;;;;;;9.16;100.00;98950.23;106662;1272;99743;-56
2023/08/09 02:37:43;;;;;;;1.10;0.70;;;;;;;9.16;100.00;98947.98;106551;1273;24206;-56
2023/08/09 02:40:21;;;;;;;6.00;0.90;;;;;;;9.16;100.00;98950.39;106746;1272;25301;-57
2023/08/09 02:42:58;;;;;;;1.00;0.60;;;;;;;9.18;100.00;98950.60;106559;1273;24258;-55
2023/08/09 02:45:32;;;;;;;0.60;0.50;;;;;;;9.19;100.00;98947.63;106684;1272;22549;-56
2023/08/09 02:48:03;;;;;;;0.70;0.70;;;;;;;9.15;100.00;98948.52;106460;1270;99730;-56
2023/08/09 02:50:55;;;;;;;2.00;0.60;;;;;;;9.14;100.00;98951.05;106609;1276;25580;-56
2023/08/09 02:54:05;;;;;;;1.70;0.50;;;;;;;9.12;100.00;98947.33;106489;1272;99169;-56
2023/08/09 02:56:44;;;;;;;1.90;0.90;;;;;;;9.11;100.00;98953.61;106634;1273;24016;-57
2023/08/09 02:59:16;;;;;;;0.80;0.60;;;;;;;9.11;100.00;98956.77;106672;1264;99291;-58
2023/08/09 03:02:20;;;;;;;0.80;0.60;;;;;;;9.09;100.00;98958.41;106500;1272;25407;-56
2023/08/09 03:05:08;;;;;;;;;;;;;;;;;;;;;
2023/08/09 03:07:39;;;;;;;1.10;0.50;;;;;;;9.10;100.00;98964.43;106649;1273;22533;-57
2023/08/09 03:10:12;;;;;;;1.00;0.60;;;;;;;9.10;100.00;98971.55;106505;1272;22546;-56
2023/08/09 03:12:44;;;;;;;0.60;0.50;;;;;;;9.11;100.00;98970.30;106588;1272;99050;-56
2023/08/09 03:15:23;;;;;;;0.70;0.60;;;;;;;9.13;100.00;98970.14;106552;1272;22523;-56
2023/08/09 03:18:03;;;;;;;0.80;0.60;;;;;;;9.16;100.00;98968.27;106699;1272;99271;-56
2023/08/09 03:20:44;;;;;;;1.20;0.60;;;;;;;9.18;100.00;98969.17;106557;1273;22531;-59
2023/08/09 03:23:25;;;;;;;2.00;0.70;;;;;;;9.22;100.00;98971.13;106516;1274;99181;-57
2023/08/09 03:26:00;;;;;;;1.80;0.70;;;;;;;9.25;100.00;98974.80;106687;1272;22781;-56
2023/08/09 03:29:02;;;;;;;0.90;0.60;;;;;;;9.27;100.00;98979.17;106973;1272;99240;-56
2023/08/09 03:31:41;;;;;;;2.20;1.10;;;;;;;9.31;100.00;98978.08;106620;1273;22567;-57
2023/08/09 03:34:21;;;;;;;1.50;0.60;;;;;;;9.32;100.00;98983.75;106467;1273;22530;-56
2023/08/09 03:36:51;;;;;;;2.20;0.60;;;;;;;9.33;100.00;98984.23;106618;1275;25002;-56
2023/08/09 03:39:21;;;;;;;1.50;0.70;;;;;;;9.38;100.00;98984.14;106653;1272;24425;-55
2023/08/09 03:42:23;;;;;;;0.90;0.60;;;;;;;9.43;100.00;98988.02;106389;1273;99743;-56
2023/08/09 03:44:58;;;;;;;1.10;0.60;;;;;;;9.49;100.00;98985.96;106767;1273;22528;-56
2023/08/09 03:47:27;;;;;;;3.50;1.10;;;;;;;9.55;100.00;98985.29;106602;1265;99130;-57
2023/08/09 03:50:06;;;;;;;0.80;0.70;;;;;;;9.62;100.00;98985.05;106719;1272;24357;-57
2023/08/09 03:52:49;;;;;;;3.40;1.00;;;;;;;9.69;100.00;98989.02;106553;1272;99143;-57
2023/08/09 03:55:24;;;;;;;3.20;1.00;;;;;;;9.75;100.00;98992.04;106658;1272;23441;-56
2023/08/09 03:57:55;;;;;;;3.60;1.20;;;;;;;9.81;100.00;98988.36;106589;1272;22570;-56
2023/08/09 04:00:32;;;;;;;1.70;0.90;;;;;;;9.87;100.00;98989.06;106446;1272;99231;-56
2023/08/09 04:03:04;;;;;;;2.10;1.00;;;;;;;9.95;100.00;98991.55;106522;1272;24363;-56
2023/08/09 04:05:42;;;;;;;1.50;0.90;;;;;;;9.99;100.00;98993.94;106565;1272;99382;-57
2023/08/09 04:08:15;;;;;;;2.70;1.30;;;;;;;10.04;100.00;98997.52;106908;1272;22561;-57
2023/08/09 04:10:52;;;;;;;1.20;0.90;;;;;;;10.12;100.00;98999.31;106592;1272;100040;-56
2023/08/09 04:13:21;;;;;;;2.30;1.00;;;;;;;10.20;100.00;98999.05;106597;1273;23909;-57
2023/08/09 04:15:52;;;;;;;3.20;0.90;;;;;;;10.27;100.00;98997.80;106728;1272;25380;-56
2023/08/09 04:18:32;;;;;;;1.70;0.80;;;;;;;10.32;100.00;99000.27;106494;1275;99499;-57
2023/08/09 04:21:07;;;;;;;2.90;0.90;;;;;;;10.37;100.00;99000.89;106475;1267;22540;-57
2023/08/09 04:23:38;;;;;;;1.60;0.80;;;;;;;10.43;100.00;99004.86;106616;1272;99417;-57
2023/08/09 04:26:08;;;;;;;2.00;0.90;;;;;;;10.47;100.00;99005.48;106693;1273;25236;-56
2023/08/09 04:28:44;;;;;;;1.80;0.80;;;;;;;10.54;100.00;99000.23;106724;1272;99777;-56
2023/08/09 04:31:14;;;;;;;2.70;1.10;;;;;;;10.63;100.00;99004.58;106608;1272;24087;-56
2023/08/09 04:33:53;;;;;;;2.10;0.70;;;;;;;10.72;100.00;99003.86;106621;1272;22527;-57
2023/08/09 04:36:22;;;;;;;3.00;1.20;;;;;;;10.81;100.00;99005.61;106435;1272;100266;-56
2023/08/09 04:38:55;;;;;;;1.30;0.90;;;;;;;10.90;100.00;99006.44;106626;1271;22543;-56
2023/08/09 04:41:58;;;;;;;3.90;0.60;;;;;;;10.92;100.00;99006.50;106541;1268;101478;-56
2023/08/09 04:44:31;;;;;;;0.70;0.60;;;;;;;11.01;100.00;99005.48;106668;1272;22530;-55
2023/08/09 04:47:10;;;;;;;1.40;0.80;;;;;;;11.08;100.00;99007.99;106724;1273;99547;-56
2023/08/09 04:49:40;;;;;;;1.80;0.70;;;;;;;11.15;100.00;99004.45;106687;1271;24276;-56
2023/08/09 04:52:13;;;;;;;2.80;0.90;;;;;;;11.18;100.00;99005.98;106536;1272;25292;-57
2023/08/09 04:54:47;;;;;;;1.40;0.70;;;;;;;11.25;100.00;99009.94;106661;1271;99193;-55
2023/08/09 04:57:31;;;;;;;3.10;0.90;;;;;;;11.35;100.00;99017.14;106752;1272;24394;-56
2023/08/09 05:00:13;;;;;;;1.80;1.00;;;;;;;11.40;100.00;99019.23;106798;1272;99339;-55
2023/08/09 05:02:53;;;;;;;2.90;0.70;;;;;;;11.39;100.00;99024.52;108403;1272;26645;-55
2023/08/09 05:05:32;;;;;;;2.10;1.00;;;;;;;11.54;100.00;99029.38;106598;1261;99407;-55
2023/08/09 05:08:17;;;;;;;2.20;0.80;;;;;;;11.70;100.00;99030.83;108302;1272;25485;-57
2023/08/09 05:10:47;;;;;;;2.10;0.90;;;;;;;11.79;100.00;99036.33;106835;1271;99511;-59
2023/08/09 05:13:25;;;;;;;1.20;0.50;;;;;;;11.89;100.00;99037.01;106730;1272;22638;-57
2023/08/09 05:16:16;;;;;;;1.50;0.70;;;;;;;12.04;100.00;99036.56;106705;1271;22546;-57
2023/08/09 05:18:46;;;;;;;2.20;0.90;;;;;;;12.21;100.00;99035.80;106666;1273;99237;-57
2023/08/09 05:21:25;;;;;;;2.00;0.60;;;;;;;12.28;100.00;99035.50;106585;1261;22566;-56
2023/08/09 05:24:06;;;;;;;0.60;0.60;;;;;;;12.39;100.00;99033.64;106529;1270;100027;-57
2023/08/09 05:26:59;;;;;;;3.00;0.80;;;;;;;12.48;100.00;99038.21;106687;1274;24382;-57
2023/08/09 05:29:29;;;;;;;0.80;0.60;;;;;;;12.64;100.00;99036.30;106606;1273;99456;-58
2023/08/09 05:32:08;;;;;;;3.00;0.90;;;;;;;12.78;100.00;99034.98;106553;1272;22530;-55
2023/08/09 05:34:38;;;;;;;1.40;0.60;;;;;;;12.94;100.00;99038.30;106823;1273;99573;-58
2023/08/09 05:37:08;;;;;;;1.20;0.80;;;;;;;13.08;100.00;99042.63;106563;1272;24278;-56
2023/08/09 05:39:37;;;;;;;1.40;0.60;;;;;;;13.17;100.00;99040.19;106734;1272;24267;-56
2023/08/09 05:42:18;;;;;;;2.30;0.80;;;;;;;13.27;100.00;99043.95;106675;1270;99851;-56
2023/08/09 05:44:51;;;;;;;1.00;0.50;;;;;;;13.31;100.00;99045.79;106634;1271;25247;-56
2023/08/09 05:47:21;;;;;;;0.70;0.60;;;;;;;13.42;100.00;99048.16;106522;1272;99367;-56
2023/08/09 05:49:50;;;;;;;3.10;0.80;;;;;;;13.53;100.00;99047.89;106728;1273;24252;-56
2023/08/09 05:52:32;;;;;;;1.20;0.60;;;;;;;13.58;100.00;99047.85;106768;1272;22522;-57
2023/08/09 05:55:09;;;;;;;2.40;0.80;;;;;;;13.81;100.00;99052.02;106570;1268;22546;-56
2023/08/09 05:57:45;;;;;;;1.80;0.70;;;;;;;13.97;100.00;99049.98;107098;1272;22650;-55
2023/08/09 06:00:23;;;;;;;2.90;0.80;;;;;;;14.19;100.00;99045.27;106684;1272;100480;-56
2023/08/09 06:02:53;;;;;;;2.70;0.80;;;;;;;14.41;100.00;99049.80;107076;1272;25291;-55
2023/08/09 06:05:35;;;;;;;2.20;0.60;;;;;;;14.56;100.00;99050.27;105685;1272;1847494;-55
2023/08/09 06:08:16;;;;;;;2.30;1.00;;;;;;;14.57;100.00;99052.48;106831;1268;24257;-54
2023/08/09 06:10:54;;;;;;;2.90;0.80;;;;;;;14.55;100.00;99048.96;107667;1272;99967;-58
2023/08/09 06:13:48;;;;;;;2.30;0.70;;;;;;;14.56;100.00;99047.86;108038;1278;22530;-50
2023/08/09 06:16:21;;;;;;;1.30;0.50;;;;;;;14.63;100.00;99048.19;106641;1278;25368;-60
2023/08/09 06:18:54;;;;;;;2.20;1.20;;;;;;;14.89;100.00;99046.78;106145;1278;100220;-55
2023/08/09 06:21:45;;;;;;;2.90;0.70;;;;;;;14.98;100.00;99049.92;107866;1267;22551;-57
2023/08/09 06:24:18;;;;;;;2.70;0.60;;;;;;;15.16;100.00;99048.40;108078;1277;100383;-55
2023/08/09 06:26:51;;;;;;;2.10;1.00;;;;;;;15.34;100.00;99047.17;107047;1276;22931;-59
2023/08/09 06:29:32;;;;;;;2.70;1.40;;;;;;;15.31;100.00;99048.27;106552;1278;99366;-58
2023/08/09 06:32:13;;;;;;;0.70;0.50;;;;;;;15.39;100.00;99050.48;106640;1277;22597;-58
2023/08/09 06:35:04;;;;;;;4.80;0.90;;;;;;;15.62;100.00;99051.52;106892;1278;100008;-56
2023/08/09 06:37:33;;;;;;;1.40;0.60;;;;;;;15.73;100.00;99053.98;106639;1277;25318;-57
2023/08/09 06:40:25;;;;;;;2.70;0.70;;;;;;;15.69;100.00;99054.98;106321;1278;22803;-58
2023/08/09 06:43:01;;;;;;;2.70;0.60;;;;;;;15.80;100.00;99062.00;106379;1278;24255;-56
2023/08/09 06:45:30;;;;;;;1.50;0.70;;;;;;;15.97;100.00;99067.17;107281;1278;22546;-57
2023/08/09 06:48:11;;;;;;;2.00;0.50;;;;;;;16.29;100.00;99062.83;106512;1278;99408;-57
2023/08/09 06:50:42;;;;;;;2.60;0.90;;;;;;;16.52;100.00;99065.50;106477;1277;22594;-54
2023/08/09 06:53:21;;;;;;;3.80;0.70;;;;;;;16.47;100.00;99063.31;109634;1274;99249;-54
2023/08/09 06:56:19;;;;;;;;;;;;;;;;;;;;;
2023/08/09 06:59:11;;;;;;;3.30;0.70;;;;;;;16.70;100.00;99071.73;108916;1273;99498;-56
2023/08/09 07:01:40;;;;;;;3.20;0.70;;;;;;;16.95;100.00;99069.35;108538;1273;22566;-52
2023/08/09 07:04:23;;;;;;;2.70;0.60;;;;;;;17.25;100.00;99071.41;107301;1273;23457;-58
2023/08/09 07:06:53;;;;;;;5.60;0.70;;;;;;;17.34;100.00;99070.95;107076;1274;98481;-57
2023/08/09 07:09:25;;;;;;;2.10;0.70;;;;;;;17.49;100.00;99067.77;107051;1273;22597;-57
2023/08/09 07:11:57;;;;;;;1.90;0.80;;;;;;;17.61;100.00;99075.63;106936;1270;99968;-54
2023/08/09 07:14:37;;;;;;;3.20;0.90;;;;;;;17.85;100.00;99079.77;107216;1273;25479;-51
2023/08/09 07:17:17;;;;;;;2.60;1.00;;;;;;;18.16;100.00;99081.98;106697;1274;99823;-53
2023/08/09 07:19:47;;;;;;;2.00;0.60;;;;;;;18.70;100.00;99087.76;106978;1274;24310;-58
2023/08/09 07:22:28;;;;;;;2.70;0.70;;;;;;;19.25;100.00;99085.15;106851;1274;24230;-58
2023/08/09 07:25:19;;;;;;;3.20;0.60;;;;;;;19.97;100.00;99091.29;106806;1274;23927;-57
2023/08/09 07:27:56;;;;;;;2.80;0.60;;;;;;;20.44;100.00;99089.50;107048;1273;26140;-56
2023/08/09 07:30:45;;;;;;;2.50;0.60;;;;;;;21.49;100.00;99088.34;106846;1274;99861;-56
2023/08/09 07:33:17;;;;;;;2.50;0.60;;;;;;;22.95;100.00;99091.00;107023;1275;23539;-56
2023/08/09 07:35:49;;;;;;;3.00;0.80;;;;;;;23.75;100.00;99095.88;106877;1276;99575;-56
2023/08/09 07:38:20;;;;;;;1.80;0.50;;;;;;;24.93;100.00;99093.91;106606;1272;23396;-56
2023/08/09 07:40:58;;;;;;;1.80;0.30;;;;;;;25.71;100.00;99091.25;106831;1271;99559;-56
2023/08/09 07:43:30;;;;;;;3.50;0.70;;;;;;;26.19;100.00;99097.30;106864;1266;24178;-55
2023/08/09 07:46:07;;;;;;;1.10;0.60;;;;;;;26.53;100.00;99097.34;107162;1268;27834;-56
2023/08/09 07:48:37;;;;;;;3.40;0.50;;;;;;;27.99;100.00;99094.55;106866;1272;99283;-58
2023/08/09 07:51:11;;;;;;;1.30;0.40;;;;;;;29.72;100.00;99089.70;106733;1271;25258;-58
2023/08/09 07:53:44;;;;;;;2.80;0.70;;;;;;;31.35;100.00;99086.87;106696;1272;99225;-57
2023/08/09 07:56:14;;;;;;;1.90;0.50;;;;;;;32.42;100.00;99087.64;106590;1272;24498;-58
2023/08/09 07:58:43;;;;;;;1.60;0.50;;;;;;;33.00;100.00;99093.83;106439;1272;99534;-57
2023/08/09 08:01:15;;;;;;;2.10;0.50;;;;;;;33.90;99.19;99091.42;106569;1272;22517;-57
2023/08/09 08:03:44;;;;;;;1.60;0.50;;;;;;;34.10;94.37;99102.02;110104;1271;22386;-57
2023/08/09 08:06:15;;;;;;;1.50;0.50;;;;;;;34.39;93.24;99105.66;110161;1272;99069;-58
2023/08/09 08:08:49;;;;;;;2.10;0.30;;;;;;;34.09;88.94;99104.58;110238;1271;22146;-56
2023/08/09 08:11:18;;;;;;;1.60;0.30;;;;;;;34.26;89.69;99110.48;110002;1272;99825;-58
2023/08/09 08:13:47;;;;;;;1.80;0.30;;;;;;;34.56;85.82;99110.61;110228;1272;22713;-60
2023/08/09 08:16:21;;;;;;;1.10;0.30;;;;;;;35.28;84.89;99108.33;107922;1272;22642;-58
2023/08/09 08:18:52;;;;;;;1.30;0.40;;;;;;;35.65;82.56;99109.40;106532;1272;99978;-57
2023/08/09 08:21:24;;;;;;;1.20;0.40;;;;;;;36.64;80.75;99114.98;106811;1272;22576;-57
2023/08/09 08:23:53;;;;;;;1.70;0.50;;;;;;;38.14;80.73;99117.15;107011;1275;99639;-58
2023/08/09 08:26:29;;;;;;;2.30;0.60;;;;;;;39.40;76.34;99116.11;106686;1272;24593;-59
2023/08/09 08:29:01;;;;;;;2.30;0.60;;;;;;;39.74;73.52;99120.50;106958;1272;99359;-58
2023/08/09 08:31:57;;;;;;;1.50;0.50;;;;;;;39.22;69.69;99118.71;107016;1272;22533;-59
2023/08/09 08:34:41;;;;;;;2.40;0.60;;;;;;;37.99;66.43;99119.04;106886;1274;26000;-57
2023/08/09 08:37:17;;;;;;;1.00;0.50;;;;;;;38.01;65.39;99119.58;106922;1273;22763;-58
2023/08/09 08:39:57;;;;;;;1.90;0.40;;;;;;;38.56;62.55;99119.44;106849;1272;22847;-58
2023/08/09 08:42:41;;;;;;;3.20;0.70;;;;;;;38.11;57.61;99122.48;107327;1272;99554;-58
2023/08/09 08:45:48;;;;;;;2.70;0.90;;;;;;;37.60;57.43;99124.31;107204;1274;24131;-57
2023/08/09 08:48:37;;;;;;;2.00;0.80;;;;;;;40.10;56.35;99128.95;107085;1274;99806;-58
2023/08/09 08:51:36;;;;;;;3.00;0.70;;;;;;;41.22;54.85;99130.48;107077;1272;22667;-58
2023/08/09 08:54:36;;;;;;;2.50;0.60;;;;;;;41.20;49.31;99135.17;107016;1267;99252;-58
2023/08/09 08:57:20;;;;;;;1.60;0.80;;;;;;;40.30;46.64;99133.02;107108;1272;22548;-56
2023/08/09 09:00:01;;;;;;;1.70;0.60;;;;;;;37.84;44.08;99130.49;106966;1275;99162;-58
2023/08/09 09:02:53;;;;;;;1.90;0.70;;;;;;;38.71;43.99;99130.44;107100;1272;23582;-57
2023/08/09 09:05:38;;;;;;;1.20;0.50;;;;;;;40.27;41.39;99126.95;107135;1277;99432;-57
2023/08/09 09:08:25;;;;;;;2.00;0.80;;;;;;;42.00;41.00;99130.98;107201;1273;22593;-56
2023/08/09 09:10:59;;;;;;;1.90;0.70;;;;;;;43.47;38.90;99129.40;107157;1270;99846;-56
2023/08/09 09:13:33;;;;;;;1.40;0.60;;;;;;;44.31;37.19;99130.08;106825;1273;22552;-57
2023/08/09 09:16:11;;;;;;;1.40;0.80;;;;;;;44.90;35.14;99136.30;107135;1272;25478;-55
2023/08/09 09:19:46;;;;;;;3.00;0.80;;;;;;;45.21;33.02;99135.23;107324;1272;99736;-57
2023/08/09 09:22:50;;;;;;;1.10;0.60;;;;;;;43.34;32.56;99135.48;107807;1273;22635;-60
2023/08/09 09:25:22;;;;;;;1.70;0.70;;;;;;;40.81;31.02;99135.65;106787;1272;22538;-60
2023/08/09 09:27:55;;;;;;;2.70;0.70;;;;;;;39.78;30.29;99135.67;106623;1274;24216;-56
2023/08/09 09:30:31;;;;;;;0.80;0.40;;;;;;;37.90;29.36;99136.42;107814;1273;105143;-61
2023/08/09 09:33:03;;;;;;;1.50;0.50;;;;;;;36.27;28.98;99141.38;106605;1272;22562;-57
2023/08/09 09:35:33;;;;;;;1.10;0.40;;;;;;;34.51;28.81;99141.10;106500;1272;99267;-58
2023/08/09 09:38:08;;;;;;;0.80;0.40;;;;;;;35.08;29.25;99141.49;106520;1272;24259;-58
2023/08/09 09:40:37;;;;;;;0.80;0.40;;;;;;;35.18;29.26;99142.23;106712;1273;25598;-62
2023/08/09 09:43:07;;;;;;;2.40;0.80;;;;;;;35.38;28.69;99145.11;106963;1272;99112;-61
2023/08/09 09:45:41;;;;;;;2.00;0.60;;;;;;;34.54;28.56;99141.22;106853;1274;23718;-58
2023/08/09 09:48:19;;;;;;;1.80;0.70;;;;;;;34.20;29.05;99144.42;106693;1273;99146;-56
2023/08/09 09:50:49;;;;;;;2.80;0.70;;;;;;;35.67;29.25;99147.09;106729;1272;25307;-58
2023/08/09 09:53:22;;;;;;;0.60;0.30;;;;;;;35.86;28.37;99147.15;106600;1272;99585;-59
2023/08/09 09:55:51;;;;;;;3.80;0.50;;;;;;;34.59;28.77;99144.19;106600;1272;22520;-58
2023/08/09 09:58:32;;;;;;;1.40;0.40;;;;;;;37.09;29.73;99145.03;107684;1272;22524;-57
2023/08/09 10:01:03;;;;;;;1.00;0.50;;;;;;;40.84;29.82;99145.98;106732;1272;101014;-60
2023/08/09 10:03:34;;;;;;;1.00;0.50;;;;;;;40.74;28.23;99145.60;106762;1274;22937;-57
2023/08/09 10:06:28;;;;;;;1.90;0.60;;;;;;;38.15;27.81;99148.84;106606;1273;99137;-54
2023/08/09 10:09:00;;;;;;;1.40;0.40;;;;;;;36.37;27.55;99150.61;106508;1274;22959;-58
2023/08/09 10:11:33;;;;;;;1.90;0.50;;;;;;;36.82;28.17;99147.30;106596;1274;99270;-57
2023/08/09 10:14:08;;;;;;;0.90;0.40;;;;;;;39.33;28.35;99145.02;106776;1271;22577;-55
2023/08/09 10:16:38;;;;;;;1.60;0.50;;;;;;;40.84;27.79;99150.54;106642;1274;22640;-58
2023/08/09 10:19:17;;;;;;;0.90;0.40;;;;;;;41.50;27.72;99153.95;106358;1274;99098;-59
2023/08/09 10:22:00;;;;;;;1.40;0.60;;;;;;;42.90;27.52;99152.81;106734;1274;22522;-60
2023/08/09 10:24:42;;;;;;;1.90;0.80;;;;;;;44.22;26.28;99149.54;106648;1272;99184;-54
2023/08/09 10:27:39;;;;;;;2.20;1.00;;;;;;;43.70;25.35;99152.22;106807;1270;22546;-56
2023/08/09 10:30:13;;;;;;;1.20;0.60;;;;;;;42.73;25.41;99154.95;106569;1273;99319;-56
2023/08/09 10:32:55;;;;;;;1.10;0.60;;;;;;;41.76;24.73;99156.91;106978;1272;22586;-60
2023/08/09 10:35:54;;;;;;;1.20;0.70;;;;;;;42.64;25.48;99151.41;107480;1274;99244;-50
2023/08/09 10:38:32;;;;;;;1.90;0.60;;;;;;;42.67;24.35;99154.96;107554;1278;22508;-58
2023/08/09 10:41:26;;;;;;;1.30;0.50;;;;;;;40.06;24.13;99155.83;107393;1272;99240;-57
2023/08/09 10:44:52;;;;;;;0.50;0.50;;;;;;;38.78;24.10;99145.16;107622;1275;22577;-58
2023/08/09 10:47:35;;;;;;;2.00;0.70;;;;;;;40.29;24.10;99144.66;106354;1279;99278;-59
2023/08/09 10:50:08;;;;;;;0.60;0.40;;;;;;;38.07;23.58;99152.45;106139;1280;22493;-59
2023/08/09 10:52:50;;;;;;;0.70;0.40;;;;;;;39.11;24.70;99146.52;106352;1263;22630;-59
2023/08/09 10:55:24;;;;;;;1.50;0.50;;;;;;;42.91;24.46;99139.95;106779;1280;98919;-58
2023/08/09 10:57:58;;;;;;;1.10;0.60;;;;;;;42.77;22.88;99149.69;106877;1281;25550;-58
2023/08/09 11:00:38;;;;;;;1.20;0.60;;;;;;;42.06;23.17;99152.78;106190;1283;99178;-58
2023/08/09 11:03:07;;;;;;;3.20;0.50;;;;;;;40.37;22.52;99155.04;106313;1280;24028;-58
2023/08/09 11:05:37;;;;;;;0.60;0.40;;;;;;;39.26;22.45;99151.13;109312;1280;99914;-58
2023/08/09 11:08:10;;;;;;;1.00;0.80;;;;;;;38.11;22.28;99149.65;109350;1281;22272;-58
2023/08/09 11:10:40;;;;;;;0.70;0.40;;;;;;;36.76;22.40;99148.15;109395;1277;22402;-58
2023/08/09 11:13:12;;;;;;;0.90;0.40;;;;;;;37.53;23.18;99147.45;109239;1281;99475;-58
2023/08/09 11:15:44;;;;;;;1.70;0.50;;;;;;;39.48;23.35;99149.27;108105;1280;23371;-58
2023/08/09 11:18:12;;;;;;;1.00;0.50;;;;;;;42.24;23.58;99149.01;107567;1280;99289;-58
2023/08/09 11:20:41;;;;;;;2.40;0.70;;;;;;;44.38;23.16;99150.37;106329;1280;24525;-58
2023/08/09 11:23:11;;;;;;;1.00;1.00;;;;;;;45.73;22.88;99157.73;106152;1279;99676;-58
2023/08/09 11:25:40;;;;;;;1.40;0.90;;;;;;;45.48;22.12;99157.34;106783;1274;25262;-58
2023/08/09 11:28:12;;;;;;;1.10;1.00;;;;;;;43.30;21.75;99156.36;106628;1275;24916;-59
2023/08/09 11:30:57;;;;;;;1.30;1.00;;;;;;;41.95;21.76;99153.36;109424;1274;99259;-58
2023/08/09 11:33:39;;;;;;;2.90;1.30;;;;;;;41.67;21.46;99153.55;106712;1274;23718;-58
2023/08/09 11:36:08;;;;;;;1.70;1.00;;;;;;;41.97;21.96;99156.83;107829;1272;99520;-58
2023/08/09 11:38:38;;;;;;;0.90;0.70;;;;;;;43.75;21.96;99159.09;107168;1272;25479;-58
2023/08/09 11:41:06;;;;;;;0.90;0.70;;;;;;;43.21;21.20;99159.38;106809;1272;99584;-58
2023/08/09 11:43:36;;;;;;;0.80;0.50;;;;;;;41.67;21.20;99161.41;106993;1273;22571;-59
2023/08/09 11:46:05;;;;;;;2.10;0.80;;;;;;;42.55;21.15;99155.16;107645;1271;23949;-56
2023/08/09 11:48:38;;;;;;;0.50;0.50;;;;;;;42.26;20.82;99167.46;106590;1272;99530;-58
2023/08/09 11:51:13;;;;;;;1.60;0.70;;;;;;;42.91;20.57;99166.26;107304;1266;27044;-58
2023/08/09 11:53:44;;;;;;;1.30;1.00;;;;;;;43.89;20.89;99167.92;106579;1271;99128;-62
2023/08/09 11:56:19;;;;;;;1.10;0.80;;;;;;;44.41;20.51;99168.20;106508;1272;22636;-61
2023/08/09 11:58:52;;;;;;;3.00;0.70;;;;;;;44.51;19.91;99170.20;106660;1271;24401;-59
2023/08/09 12:01:28;;;;;;;3.10;0.60;;;;;;;42.45;19.58;99167.11;106855;1273;26182;-59
2023/08/09 12:04:00;;;;;;;1.10;0.50;;;;;;;40.91;20.14;99170.08;107144;1272;22545;-56
2023/08/09 12:06:34;;;;;;;1.10;0.60;;;;;;;40.92;20.17;99178.56;106410;1273;99680;-55
2023/08/09 12:09:42;;;;;;;0.90;0.50;;;;;;;41.88;20.42;99173.75;106663;1272;25339;-57
2023/08/09 12:12:33;;;;;;;1.00;0.40;;;;;;;42.40;19.47;99166.02;106534;1273;99187;-56
2023/08/09 12:15:04;;;;;;;1.00;0.50;;;;;;;40.48;19.45;99170.41;106808;1273;23014;-58
2023/08/09 12:17:34;;;;;;;0.80;0.50;;;;;;;37.99;19.59;99173.05;106556;1262;99336;-58